sensor_id;sensor_type;location;lat;lon;timestamp;P1;durP1;ratioP1;P2;durP2;ratioP2
15820;SDS011;8011;51.650;7.240;2022-12-17T00:02:00;107.03;;;34.33;;
15820;SDS011;8011;51.650;7.240;2022-12-17T00:04:44;112.43;;;36.33;;
15820;SDS011;8011;51.650;7.240;2022-12-17T00:07:28;112.70;;;37.57;;
15820;SDS011;8011;51.650;7.240;2022-12-17T00:10:12;104.10;;;34.83;;
15820;SDS011;8011;51.650;7.240;2022-12-17T00:12:56;113.40;;;37.10;;
15820;SDS011;8011;51.650;7.240;2022-12-17T00:15:40;106.83;;;34.73;;
15820;SDS011;8011;51.650;7.240;2022-12-17T00:18:24;109.80;;;34.37;;
15820;SDS011;8011;51.650;7.240;2022-12-17T00:21:08;98.03;;;32.63;;
15820;SDS011;8011;51.650;7.240;2022-12-17T00:23:53;94.33;;;32.47;;
15820;SDS011;8011;51.650;7.240;2022-12-17T00:26:37;92.53;;;33.33;;
15820;SDS011;8011;51.650;7.240;2022-12-17T00:29:22;103.63;;;34.47;;
15820;SDS011;8011;51.650;7.240;2022-12-17T00:32:07;94.23;;;34.30;;
15820;SDS011;8011;51.650;7.240;2022-12-17T00:34:52;104.97;;;34.40;;
15820;SDS011;8011;51.650;7.240;2022-12-17T00:37:36;108.83;;;34.37;;
15820;SDS011;8011;51.650;7.240;2022-12-17T00:40:20;88.90;;;31.63;;
15820;SDS011;8011;51.650;7.240;2022-12-17T00:43:05;89.63;;;30.73;;
15820;SDS011;8011;51.650;7.240;2022-12-17T00:45:50;91.77;;;30.43;;
15820;SDS011;8011;51.650;7.240;2022-12-17T00:48:35;96.37;;;31.40;;
15820;SDS011;8011;51.650;7.240;2022-12-17T00:51:19;86.77;;;29.63;;
15820;SDS011;8011;51.650;7.240;2022-12-17T00:54:04;85.70;;;30.97;;
15820;SDS011;8011;51.650;7.240;2022-12-17T00:56:49;92.60;;;29.83;;
15820;SDS011;8011;51.650;7.240;2022-12-17T00:59:34;75.23;;;27.50;;
15820;SDS011;8011;51.650;7.240;2022-12-17T04:00:39;47.20;;;17.07;;
15820;SDS011;8011;51.650;7.240;2022-12-17T04:03:23;55.40;;;18.60;;
15820;SDS011;8011;51.650;7.240;2022-12-17T04:06:07;51.47;;;18.50;;
15820;SDS011;8011;51.650;7.240;2022-12-17T04:08:55;51.67;;;18.93;;
15820;SDS011;8011;51.650;7.240;2022-12-17T04:11:39;47.07;;;16.27;;
15820;SDS011;8011;51.650;7.240;2022-12-17T04:14:23;42.60;;;16.37;;
15820;SDS011;8011;51.650;7.240;2022-12-17T04:17:07;39.83;;;16.87;;
15820;SDS011;8011;51.650;7.240;2022-12-17T04:19:56;45.67;;;16.60;;
15820;SDS011;8011;51.650;7.240;2022-12-17T04:22:40;47.57;;;17.20;;
15820;SDS011;8011;51.650;7.240;2022-12-17T04:25:24;37.37;;;15.87;;
15820;SDS011;8011;51.650;7.240;2022-12-17T04:28:08;45.43;;;16.23;;
15820;SDS011;8011;51.650;7.240;2022-12-17T04:30:52;37.03;;;15.67;;
15820;SDS011;8011;51.650;7.240;2022-12-17T04:33:36;35.83;;;16.30;;
15820;SDS011;8011;51.650;7.240;2022-12-17T04:36:20;35.00;;;13.67;;
15820;SDS011;8011;51.650;7.240;2022-12-17T04:39:04;34.17;;;13.67;;
15820;SDS011;8011;51.650;7.240;2022-12-17T04:41:48;37.90;;;14.20;;
15820;SDS011;8011;51.650;7.240;2022-12-17T04:44:33;40.17;;;15.50;;
15820;SDS011;8011;51.650;7.240;2022-12-17T04:47:17;35.53;;;14.73;;
15820;SDS011;8011;51.650;7.240;2022-12-17T04:50:01;39.17;;;15.83;;
15820;SDS011;8011;51.650;7.240;2022-12-17T04:52:45;37.37;;;15.30;;
15820;SDS011;8011;51.650;7.240;2022-12-17T04:55:44;40.60;;;16.03;;
15820;SDS011;8011;51.650;7.240;2022-12-17T04:58:29;34.97;;;14.03;;
15820;SDS011;8011;51.650;7.240;2022-12-17T05:01:12;34.33;;;14.67;;
15820;SDS011;8011;51.650;7.240;2022-12-17T05:03:58;35.13;;;15.43;;
15820;SDS011;8011;51.650;7.240;2022-12-17T05:06:42;43.90;;;17.23;;
15820;SDS011;8011;51.650;7.240;2022-12-17T05:09:27;40.73;;;15.60;;
15820;SDS011;8011;51.650;7.240;2022-12-17T05:12:11;42.23;;;17.10;;
15820;SDS011;8011;51.650;7.240;2022-12-17T05:14:55;42.67;;;15.73;;
15820;SDS011;8011;51.650;7.240;2022-12-17T05:17:39;38.80;;;15.73;;
15820;SDS011;8011;51.650;7.240;2022-12-17T05:20:23;38.07;;;15.20;;
15820;SDS011;8011;51.650;7.240;2022-12-17T05:23:08;40.70;;;15.67;;
15820;SDS011;8011;51.650;7.240;2022-12-17T05:26:35;39.10;;;16.23;;
15820;SDS011;8011;51.650;7.240;2022-12-17T05:29:04;35.47;;;14.53;;
15820;SDS011;8011;51.650;7.240;2022-12-17T05:31:49;36.53;;;14.47;;
15820;SDS011;8011;51.650;7.240;2022-12-17T05:34:33;35.03;;;13.73;;
15820;SDS011;8011;51.650;7.240;2022-12-17T05:37:18;36.07;;;14.87;;
15820;SDS011;8011;51.650;7.240;2022-12-17T05:40:03;38.23;;;15.17;;
15820;SDS011;8011;51.650;7.240;2022-12-17T05:42:58;34.87;;;14.03;;
15820;SDS011;8011;51.650;7.240;2022-12-17T05:45:44;37.23;;;14.80;;
15820;SDS011;8011;51.650;7.240;2022-12-17T05:48:29;36.20;;;15.23;;
15820;SDS011;8011;51.650;7.240;2022-12-17T05:51:15;31.03;;;14.27;;
15820;SDS011;8011;51.650;7.240;2022-12-17T05:54:00;31.37;;;14.17;;
15820;SDS011;8011;51.650;7.240;2022-12-17T05:56:44;35.73;;;14.23;;
15820;SDS011;8011;51.650;7.240;2022-12-17T05:59:28;36.93;;;15.17;;
15820;SDS011;8011;51.650;7.240;2022-12-17T06:02:12;40.60;;;15.10;;
15820;SDS011;8011;51.650;7.240;2022-12-17T06:04:56;35.47;;;14.47;;
15820;SDS011;8011;51.650;7.240;2022-12-17T06:07:40;33.67;;;14.63;;
15820;SDS011;8011;51.650;7.240;2022-12-17T06:10:25;33.90;;;14.87;;
15820;SDS011;8011;51.650;7.240;2022-12-17T06:13:09;40.63;;;15.33;;
15820;SDS011;8011;51.650;7.240;2022-12-17T06:15:53;36.17;;;15.20;;
15820;SDS011;8011;51.650;7.240;2022-12-17T06:18:37;38.13;;;14.63;;
15820;SDS011;8011;51.650;7.240;2022-12-17T06:21:21;31.97;;;12.77;;
15820;SDS011;8011;51.650;7.240;2022-12-17T06:24:06;34.07;;;14.67;;
15820;SDS011;8011;51.650;7.240;2022-12-17T06:26:50;35.47;;;15.13;;
15820;SDS011;8011;51.650;7.240;2022-12-17T06:29:35;40.37;;;14.17;;
15820;SDS011;8011;51.650;7.240;2022-12-17T06:32:20;33.60;;;13.33;;
15820;SDS011;8011;51.650;7.240;2022-12-17T06:35:04;33.93;;;15.03;;
15820;SDS011;8011;51.650;7.240;2022-12-17T06:37:56;41.83;;;15.73;;
15820;SDS011;8011;51.650;7.240;2022-12-17T06:40:42;36.57;;;14.17;;
15820;SDS011;8011;51.650;7.240;2022-12-17T06:43:26;37.63;;;14.63;;
15820;SDS011;8011;51.650;7.240;2022-12-17T06:46:09;40.67;;;15.73;;
15820;SDS011;8011;51.650;7.240;2022-12-17T06:48:53;32.60;;;14.20;;
15820;SDS011;8011;51.650;7.240;2022-12-17T06:51:37;39.93;;;15.53;;
15820;SDS011;8011;51.650;7.240;2022-12-17T06:54:21;37.30;;;14.90;;
15820;SDS011;8011;51.650;7.240;2022-12-17T06:57:05;42.77;;;15.60;;
15820;SDS011;8011;51.650;7.240;2022-12-17T06:59:49;35.83;;;13.47;;
15820;SDS011;8011;51.650;7.240;2022-12-17T07:02:33;39.63;;;15.87;;
15820;SDS011;8011;51.650;7.240;2022-12-17T07:05:17;38.77;;;15.70;;
15820;SDS011;8011;51.650;7.240;2022-12-17T07:08:01;36.83;;;13.53;;
15820;SDS011;8011;51.650;7.240;2022-12-17T07:10:45;42.53;;;15.27;;
15820;SDS011;8011;51.650;7.240;2022-12-17T07:13:29;36.43;;;15.60;;
15820;SDS011;8011;51.650;7.240;2022-12-17T07:16:13;39.37;;;15.63;;
15820;SDS011;8011;51.650;7.240;2022-12-17T07:18:57;38.60;;;15.33;;
15820;SDS011;8011;51.650;7.240;2022-12-17T07:21:42;41.57;;;15.30;;
15820;SDS011;8011;51.650;7.240;2022-12-17T07:24:26;36.70;;;14.37;;
15820;SDS011;8011;51.650;7.240;2022-12-17T07:27:10;41.53;;;14.40;;
15820;SDS011;8011;51.650;7.240;2022-12-17T07:29:54;38.67;;;15.10;;
15820;SDS011;8011;51.650;7.240;2022-12-17T07:32:38;39.20;;;14.53;;
15820;SDS011;8011;51.650;7.240;2022-12-17T07:35:22;40.20;;;15.77;;
15820;SDS011;8011;51.650;7.240;2022-12-17T07:38:07;37.23;;;14.27;;
15820;SDS011;8011;51.650;7.240;2022-12-17T07:40:51;34.63;;;15.00;;
15820;SDS011;8011;51.650;7.240;2022-12-17T07:43:35;33.53;;;14.37;;
15820;SDS011;8011;51.650;7.240;2022-12-17T07:46:19;39.80;;;15.00;;
15820;SDS011;8011;51.650;7.240;2022-12-17T07:49:04;34.57;;;14.13;;
15820;SDS011;8011;51.650;7.240;2022-12-17T07:51:47;34.57;;;14.27;;
15820;SDS011;8011;51.650;7.240;2022-12-17T07:54:32;32.90;;;13.40;;
15820;SDS011;8011;51.650;7.240;2022-12-17T07:57:15;38.57;;;13.87;;
15820;SDS011;8011;51.650;7.240;2022-12-17T07:59:59;36.50;;;13.57;;
15820;SDS011;8011;51.650;7.240;2022-12-17T08:02:43;37.23;;;14.63;;
15820;SDS011;8011;51.650;7.240;2022-12-17T08:05:27;39.23;;;14.03;;
15820;SDS011;8011;51.650;7.240;2022-12-17T08:08:12;39.10;;;14.03;;
15820;SDS011;8011;51.650;7.240;2022-12-17T08:10:57;38.07;;;14.47;;
15820;SDS011;8011;51.650;7.240;2022-12-17T08:13:41;38.60;;;15.07;;
15820;SDS011;8011;51.650;7.240;2022-12-17T08:16:26;41.07;;;16.10;;
15820;SDS011;8011;51.650;7.240;2022-12-17T08:19:11;37.57;;;14.40;;
15820;SDS011;8011;51.650;7.240;2022-12-17T08:21:55;39.60;;;15.17;;
15820;SDS011;8011;51.650;7.240;2022-12-17T08:24:39;42.67;;;15.43;;
15820;SDS011;8011;51.650;7.240;2022-12-17T08:27:23;33.87;;;14.40;;
15820;SDS011;8011;51.650;7.240;2022-12-17T08:30:07;44.57;;;17.47;;
15820;SDS011;8011;51.650;7.240;2022-12-17T08:32:51;39.13;;;15.73;;
15820;SDS011;8011;51.650;7.240;2022-12-17T08:35:36;37.67;;;14.23;;
15820;SDS011;8011;51.650;7.240;2022-12-17T08:38:27;36.13;;;14.30;;
15820;SDS011;8011;51.650;7.240;2022-12-17T08:41:11;37.03;;;14.73;;
15820;SDS011;8011;51.650;7.240;2022-12-17T08:43:56;37.00;;;14.43;;
15820;SDS011;8011;51.650;7.240;2022-12-17T08:46:40;37.17;;;15.30;;
15820;SDS011;8011;51.650;7.240;2022-12-17T08:49:24;38.90;;;15.57;;
15820;SDS011;8011;51.650;7.240;2022-12-17T08:52:08;35.53;;;15.60;;
15820;SDS011;8011;51.650;7.240;2022-12-17T08:54:52;34.40;;;14.90;;
15820;SDS011;8011;51.650;7.240;2022-12-17T08:57:36;42.10;;;15.67;;
15820;SDS011;8011;51.650;7.240;2022-12-17T09:00:20;38.53;;;15.70;;
15820;SDS011;8011;51.650;7.240;2022-12-17T09:03:03;35.27;;;15.77;;
15820;SDS011;8011;51.650;7.240;2022-12-17T09:05:48;38.80;;;15.07;;
15820;SDS011;8011;51.650;7.240;2022-12-17T09:08:34;42.40;;;16.03;;
15820;SDS011;8011;51.650;7.240;2022-12-17T09:11:18;41.50;;;16.67;;
15820;SDS011;8011;51.650;7.240;2022-12-17T09:14:02;33.23;;;14.70;;
15820;SDS011;8011;51.650;7.240;2022-12-17T09:16:46;33.60;;;16.20;;
15820;SDS011;8011;51.650;7.240;2022-12-17T09:19:30;38.03;;;16.60;;
15820;SDS011;8011;51.650;7.240;2022-12-17T09:22:14;37.27;;;16.97;;
15820;SDS011;8011;51.650;7.240;2022-12-17T09:24:59;40.60;;;16.67;;
15820;SDS011;8011;51.650;7.240;2022-12-17T09:27:43;42.83;;;17.93;;
15820;SDS011;8011;51.650;7.240;2022-12-17T09:30:28;36.23;;;17.30;;
15820;SDS011;8011;51.650;7.240;2022-12-17T09:33:13;43.17;;;17.00;;
15820;SDS011;8011;51.650;7.240;2022-12-17T09:36:02;42.87;;;16.33;;
15820;SDS011;8011;51.650;7.240;2022-12-17T09:38:47;39.33;;;16.93;;
15820;SDS011;8011;51.650;7.240;2022-12-17T09:48:44;40.07;;;17.60;;
15820;SDS011;8011;51.650;7.240;2022-12-17T09:51:27;34.10;;;15.83;;
15820;SDS011;8011;51.650;7.240;2022-12-17T09:54:54;40.10;;;17.13;;
15820;SDS011;8011;51.650;7.240;2022-12-17T09:57:23;38.33;;;18.57;;
15820;SDS011;8011;51.650;7.240;2022-12-17T10:00:15;35.87;;;16.07;;
15820;SDS011;8011;51.650;7.240;2022-12-17T10:03:01;34.37;;;15.23;;
15820;SDS011;8011;51.650;7.240;2022-12-17T10:05:51;30.03;;;14.97;;
15820;SDS011;8011;51.650;7.240;2022-12-17T10:08:35;32.57;;;15.03;;
15820;SDS011;8011;51.650;7.240;2022-12-17T10:11:22;36.63;;;16.73;;
15820;SDS011;8011;51.650;7.240;2022-12-17T10:14:19;35.67;;;17.43;;
15820;SDS011;8011;51.650;7.240;2022-12-17T10:17:04;38.50;;;16.23;;
15820;SDS011;8011;51.650;7.240;2022-12-17T10:19:56;33.97;;;15.87;;
15820;SDS011;8011;51.650;7.240;2022-12-17T10:22:41;38.53;;;16.77;;
15820;SDS011;8011;51.650;7.240;2022-12-17T10:25:30;41.17;;;18.13;;
15820;SDS011;8011;51.650;7.240;2022-12-17T10:28:15;38.00;;;16.60;;
15820;SDS011;8011;51.650;7.240;2022-12-17T10:31:05;35.33;;;16.90;;
15820;SDS011;8011;51.650;7.240;2022-12-17T10:33:57;35.53;;;16.57;;
15820;SDS011;8011;51.650;7.240;2022-12-17T10:36:45;32.03;;;16.00;;
15820;SDS011;8011;51.650;7.240;2022-12-17T10:39:33;38.77;;;17.43;;
15820;SDS011;8011;51.650;7.240;2022-12-17T10:42:28;34.47;;;16.93;;
15820;SDS011;8011;51.650;7.240;2022-12-17T10:45:24;31.37;;;15.53;;
15820;SDS011;8011;51.650;7.240;2022-12-17T10:48:23;34.33;;;16.47;;
15820;SDS011;8011;51.650;7.240;2022-12-17T10:51:18;35.00;;;16.17;;
15820;SDS011;8011;51.650;7.240;2022-12-17T10:54:28;32.67;;;15.70;;
15820;SDS011;8011;51.650;7.240;2022-12-17T11:03:32;40.60;;;20.13;;
15820;SDS011;8011;51.650;7.240;2022-12-17T11:06:31;31.63;;;17.50;;
15820;SDS011;8011;51.650;7.240;2022-12-17T11:12:34;36.30;;;18.10;;
15820;SDS011;8011;51.650;7.240;2022-12-17T11:15:26;37.23;;;16.67;;
15820;SDS011;8011;51.650;7.240;2022-12-17T11:18:33;41.53;;;17.80;;
15820;SDS011;8011;51.650;7.240;2022-12-17T11:21:56;43.70;;;22.10;;
15820;SDS011;8011;51.650;7.240;2022-12-17T11:27:47;34.10;;;16.13;;
15820;SDS011;8011;51.650;7.240;2022-12-17T11:30:57;35.57;;;18.63;;
15820;SDS011;8011;51.650;7.240;2022-12-17T11:33:57;37.90;;;18.17;;
15820;SDS011;8011;51.650;7.240;2022-12-17T11:37:05;42.37;;;17.67;;
15820;SDS011;8011;51.650;7.240;2022-12-17T11:40:00;34.30;;;16.90;;
15820;SDS011;8011;51.650;7.240;2022-12-17T11:42:57;38.77;;;21.07;;
15820;SDS011;8011;51.650;7.240;2022-12-17T11:45:59;40.37;;;19.23;;
15820;SDS011;8011;51.650;7.240;2022-12-17T11:48:55;43.20;;;21.03;;
15820;SDS011;8011;51.650;7.240;2022-12-17T11:52:00;35.70;;;17.50;;
15820;SDS011;8011;51.650;7.240;2022-12-17T11:58:27;31.40;;;17.20;;
15820;SDS011;8011;51.650;7.240;2022-12-17T12:01:40;33.30;;;15.70;;
15820;SDS011;8011;51.650;7.240;2022-12-17T12:07:45;33.20;;;17.07;;
15820;SDS011;8011;51.650;7.240;2022-12-17T12:11:04;30.93;;;15.90;;
15820;SDS011;8011;51.650;7.240;2022-12-17T12:17:18;32.70;;;18.00;;
15820;SDS011;8011;51.650;7.240;2022-12-17T12:20:20;29.37;;;15.33;;
15820;SDS011;8011;51.650;7.240;2022-12-17T12:23:37;36.93;;;20.83;;
15820;SDS011;8011;51.650;7.240;2022-12-17T12:27:02;35.10;;;18.90;;
15820;SDS011;8011;51.650;7.240;2022-12-17T12:29:52;27.97;;;15.70;;
15820;SDS011;8011;51.650;7.240;2022-12-17T12:35:39;27.33;;;14.60;;
15820;SDS011;8011;51.650;7.240;2022-12-17T12:38:26;25.87;;;14.97;;
15820;SDS011;8011;51.650;7.240;2022-12-17T12:44:27;30.27;;;15.13;;
15820;SDS011;8011;51.650;7.240;2022-12-17T12:47:24;28.73;;;15.63;;
15820;SDS011;8011;51.650;7.240;2022-12-17T12:50:27;24.47;;;14.70;;
15820;SDS011;8011;51.650;7.240;2022-12-17T12:53:22;27.23;;;15.00;;
15820;SDS011;8011;51.650;7.240;2022-12-17T12:56:22;25.30;;;15.47;;
15820;SDS011;8011;51.650;7.240;2022-12-17T12:59:30;26.93;;;15.50;;
15820;SDS011;8011;51.650;7.240;2022-12-17T13:05:04;35.37;;;17.00;;
15820;SDS011;8011;51.650;7.240;2022-12-17T13:10:35;34.13;;;17.83;;
15820;SDS011;8011;51.650;7.240;2022-12-17T13:15:40;30.10;;;15.40;;
15820;SDS011;8011;51.650;7.240;2022-12-17T13:20:59;25.60;;;14.63;;
15820;SDS011;8011;51.650;7.240;2022-12-17T13:23:40;28.67;;;14.83;;
15820;SDS011;8011;51.650;7.240;2022-12-17T13:29:28;36.70;;;18.80;;
15820;SDS011;8011;51.650;7.240;2022-12-17T13:34:46;26.37;;;14.60;;
15820;SDS011;8011;51.650;7.240;2022-12-17T13:42:50;27.77;;;14.67;;
15820;SDS011;8011;51.650;7.240;2022-12-17T13:45:16;24.50;;;15.63;;
15820;SDS011;8011;51.650;7.240;2022-12-17T13:47:51;24.10;;;14.27;;
15820;SDS011;8011;51.650;7.240;2022-12-17T13:50:24;22.73;;;14.07;;
15820;SDS011;8011;51.650;7.240;2022-12-17T13:52:51;26.60;;;15.73;;
15820;SDS011;8011;51.650;7.240;2022-12-17T13:55:22;24.53;;;15.43;;
15820;SDS011;8011;51.650;7.240;2022-12-17T13:57:50;27.03;;;17.30;;
15820;SDS011;8011;51.650;7.240;2022-12-17T14:00:17;25.80;;;15.03;;
15820;SDS011;8011;51.650;7.240;2022-12-17T14:02:45;23.70;;;15.20;;
15820;SDS011;8011;51.650;7.240;2022-12-17T14:05:25;26.97;;;14.50;;
15820;SDS011;8011;51.650;7.240;2022-12-17T14:07:54;23.67;;;13.77;;
15820;SDS011;8011;51.650;7.240;2022-12-17T14:10:23;23.53;;;14.30;;
15820;SDS011;8011;51.650;7.240;2022-12-17T14:12:49;28.77;;;14.10;;
15820;SDS011;8011;51.650;7.240;2022-12-17T14:17:44;23.90;;;13.27;;
15820;SDS011;8011;51.650;7.240;2022-12-17T14:20:13;21.70;;;13.77;;
15820;SDS011;8011;51.650;7.240;2022-12-17T14:22:54;24.83;;;14.37;;
15820;SDS011;8011;51.650;7.240;2022-12-17T14:25:33;24.87;;;13.93;;
15820;SDS011;8011;51.650;7.240;2022-12-17T14:28:44;23.03;;;13.57;;
15820;SDS011;8011;51.650;7.240;2022-12-17T14:31:05;22.77;;;13.83;;
15820;SDS011;8011;51.650;7.240;2022-12-17T14:33:58;26.70;;;13.80;;
15820;SDS011;8011;51.650;7.240;2022-12-17T14:36:26;22.63;;;13.50;;
15820;SDS011;8011;51.650;7.240;2022-12-17T14:41:21;23.23;;;14.83;;
15820;SDS011;8011;51.650;7.240;2022-12-17T14:44:06;21.40;;;13.73;;
15820;SDS011;8011;51.650;7.240;2022-12-17T14:46:46;20.07;;;14.53;;
15820;SDS011;8011;51.650;7.240;2022-12-17T14:49:16;26.27;;;14.80;;
15820;SDS011;8011;51.650;7.240;2022-12-17T14:51:44;26.40;;;16.00;;
15820;SDS011;8011;51.650;7.240;2022-12-17T14:56:50;24.37;;;14.33;;
15820;SDS011;8011;51.650;7.240;2022-12-17T14:59:22;23.23;;;13.90;;
15820;SDS011;8011;51.650;7.240;2022-12-17T15:01:54;23.80;;;15.30;;
15820;SDS011;8011;51.650;7.240;2022-12-17T15:04:20;24.97;;;14.93;;
15820;SDS011;8011;51.650;7.240;2022-12-17T15:06:46;23.93;;;14.33;;
15820;SDS011;8011;51.650;7.240;2022-12-17T15:09:13;21.13;;;13.83;;
15820;SDS011;8011;51.650;7.240;2022-12-17T15:11:39;23.33;;;14.33;;
15820;SDS011;8011;51.650;7.240;2022-12-17T15:14:05;25.27;;;15.10;;
15820;SDS011;8011;51.650;7.240;2022-12-17T15:16:31;22.93;;;13.57;;
15820;SDS011;8011;51.650;7.240;2022-12-17T15:18:57;28.43;;;15.67;;
15820;SDS011;8011;51.650;7.240;2022-12-17T15:21:24;28.27;;;15.87;;
15820;SDS011;8011;51.650;7.240;2022-12-17T15:23:50;27.07;;;16.07;;
15820;SDS011;8011;51.650;7.240;2022-12-17T15:26:16;30.07;;;16.87;;
15820;SDS011;8011;51.650;7.240;2022-12-17T15:28:43;28.33;;;16.73;;
15820;SDS011;8011;51.650;7.240;2022-12-17T15:31:10;32.23;;;18.97;;
15820;SDS011;8011;51.650;7.240;2022-12-17T15:33:37;30.77;;;18.00;;
15820;SDS011;8011;51.650;7.240;2022-12-17T15:36:03;29.70;;;18.63;;
15820;SDS011;8011;51.650;7.240;2022-12-17T15:38:29;34.00;;;20.30;;
15820;SDS011;8011;51.650;7.240;2022-12-17T15:40:57;38.43;;;21.63;;
15820;SDS011;8011;51.650;7.240;2022-12-17T15:43:24;37.57;;;20.73;;
15820;SDS011;8011;51.650;7.240;2022-12-17T15:45:50;33.80;;;20.00;;
15820;SDS011;8011;51.650;7.240;2022-12-17T15:48:17;36.53;;;20.73;;
15820;SDS011;8011;51.650;7.240;2022-12-17T15:50:44;39.97;;;22.73;;
15820;SDS011;8011;51.650;7.240;2022-12-17T15:53:11;37.07;;;22.83;;
15820;SDS011;8011;51.650;7.240;2022-12-17T15:55:37;36.60;;;21.67;;
15820;SDS011;8011;51.650;7.240;2022-12-17T15:58:12;36.97;;;20.53;;
15820;SDS011;8011;51.650;7.240;2022-12-17T16:00:38;41.90;;;22.50;;
15820;SDS011;8011;51.650;7.240;2022-12-17T16:03:04;41.00;;;22.47;;
15820;SDS011;8011;51.650;7.240;2022-12-17T16:05:29;35.47;;;20.63;;
15820;SDS011;8011;51.650;7.240;2022-12-17T16:07:55;39.83;;;21.87;;
15820;SDS011;8011;51.650;7.240;2022-12-17T16:10:23;38.07;;;20.80;;
15820;SDS011;8011;51.650;7.240;2022-12-17T16:12:48;36.53;;;21.13;;
15820;SDS011;8011;51.650;7.240;2022-12-17T16:15:14;32.87;;;19.63;;
15820;SDS011;8011;51.650;7.240;2022-12-17T16:17:40;39.73;;;24.17;;
15820;SDS011;8011;51.650;7.240;2022-12-17T16:20:06;37.67;;;23.10;;
15820;SDS011;8011;51.650;7.240;2022-12-17T16:22:32;48.40;;;24.10;;
15820;SDS011;8011;51.650;7.240;2022-12-17T16:24:58;45.73;;;24.77;;
15820;SDS011;8011;51.650;7.240;2022-12-17T16:27:24;40.57;;;23.87;;
15820;SDS011;8011;51.650;7.240;2022-12-17T16:29:49;51.30;;;25.70;;
15820;SDS011;8011;51.650;7.240;2022-12-17T16:32:15;58.10;;;31.57;;
15820;SDS011;8011;51.650;7.240;2022-12-17T16:34:42;64.53;;;31.97;;
15820;SDS011;8011;51.650;7.240;2022-12-17T16:37:08;63.97;;;30.10;;
15820;SDS011;8011;51.650;7.240;2022-12-17T16:39:34;77.93;;;31.03;;
15820;SDS011;8011;51.650;7.240;2022-12-17T16:42:00;79.57;;;30.33;;
15820;SDS011;8011;51.650;7.240;2022-12-17T16:44:26;85.57;;;34.60;;
15820;SDS011;8011;51.650;7.240;2022-12-17T16:46:52;71.83;;;32.60;;
15820;SDS011;8011;51.650;7.240;2022-12-17T16:49:21;80.33;;;34.80;;
15820;SDS011;8011;51.650;7.240;2022-12-17T16:51:51;82.10;;;33.57;;
15820;SDS011;8011;51.650;7.240;2022-12-17T16:54:19;76.67;;;32.67;;
15820;SDS011;8011;51.650;7.240;2022-12-17T16:56:46;71.13;;;32.33;;
15820;SDS011;8011;51.650;7.240;2022-12-17T16:59:16;73.23;;;32.87;;
15820;SDS011;8011;51.650;7.240;2022-12-17T17:01:43;70.20;;;30.70;;
15820;SDS011;8011;51.650;7.240;2022-12-17T17:04:11;58.33;;;27.50;;
15820;SDS011;8011;51.650;7.240;2022-12-17T17:06:38;69.37;;;28.47;;
15820;SDS011;8011;51.650;7.240;2022-12-17T17:09:05;66.43;;;28.87;;
15820;SDS011;8011;51.650;7.240;2022-12-17T17:11:31;64.20;;;28.90;;
15820;SDS011;8011;51.650;7.240;2022-12-17T17:13:57;65.53;;;29.00;;
15820;SDS011;8011;51.650;7.240;2022-12-17T17:16:24;74.40;;;30.07;;
15820;SDS011;8011;51.650;7.240;2022-12-17T17:18:50;83.30;;;33.10;;
15820;SDS011;8011;51.650;7.240;2022-12-17T17:23:55;61.60;;;29.17;;
15820;SDS011;8011;51.650;7.240;2022-12-17T17:26:23;63.20;;;28.17;;
15820;SDS011;8011;51.650;7.240;2022-12-17T17:28:50;73.30;;;30.10;;
15820;SDS011;8011;51.650;7.240;2022-12-17T17:31:16;66.03;;;30.30;;
15820;SDS011;8011;51.650;7.240;2022-12-17T17:33:43;65.83;;;33.10;;
15820;SDS011;8011;51.650;7.240;2022-12-17T17:36:20;66.27;;;31.50;;
15820;SDS011;8011;51.650;7.240;2022-12-17T17:38:52;57.70;;;28.33;;
15820;SDS011;8011;51.650;7.240;2022-12-17T17:41:22;60.07;;;27.43;;
15820;SDS011;8011;51.650;7.240;2022-12-17T17:43:53;64.33;;;28.57;;
15820;SDS011;8011;51.650;7.240;2022-12-17T17:46:20;57.43;;;27.53;;
15820;SDS011;8011;51.650;7.240;2022-12-17T17:48:46;66.97;;;29.67;;
15820;SDS011;8011;51.650;7.240;2022-12-17T17:51:17;64.97;;;28.50;;
15820;SDS011;8011;51.650;7.240;2022-12-17T17:53:46;61.67;;;27.37;;
15820;SDS011;8011;51.650;7.240;2022-12-17T17:56:15;66.17;;;30.83;;
15820;SDS011;8011;51.650;7.240;2022-12-17T17:58:54;77.87;;;32.80;;
15820;SDS011;8011;51.650;7.240;2022-12-17T18:01:33;68.20;;;30.63;;
15820;SDS011;8011;51.650;7.240;2022-12-17T18:04:05;58.47;;;29.93;;
15820;SDS011;8011;51.650;7.240;2022-12-17T18:06:32;59.90;;;28.23;;
15820;SDS011;8011;51.650;7.240;2022-12-17T18:09:01;58.83;;;28.17;;
15820;SDS011;8011;51.650;7.240;2022-12-17T18:11:27;52.00;;;26.53;;
15820;SDS011;8011;51.650;7.240;2022-12-17T18:13:55;54.77;;;27.33;;
15820;SDS011;8011;51.650;7.240;2022-12-17T18:19:09;61.17;;;28.83;;
15820;SDS011;8011;51.650;7.240;2022-12-17T18:21:35;57.70;;;29.57;;
15820;SDS011;8011;51.650;7.240;2022-12-17T18:24:12;66.03;;;28.87;;
15820;SDS011;8011;51.650;7.240;2022-12-17T18:26:39;55.63;;;28.50;;
15820;SDS011;8011;51.650;7.240;2022-12-17T18:29:27;51.87;;;26.03;;
15820;SDS011;8011;51.650;7.240;2022-12-17T18:31:53;57.83;;;27.77;;
15820;SDS011;8011;51.650;7.240;2022-12-17T18:34:20;56.90;;;27.93;;
15820;SDS011;8011;51.650;7.240;2022-12-17T18:36:47;51.70;;;27.07;;
15820;SDS011;8011;51.650;7.240;2022-12-17T18:39:21;58.40;;;28.43;;
15820;SDS011;8011;51.650;7.240;2022-12-17T18:41:49;56.77;;;27.17;;
15820;SDS011;8011;51.650;7.240;2022-12-17T18:44:38;55.90;;;27.67;;
15820;SDS011;8011;51.650;7.240;2022-12-17T18:47:05;57.50;;;26.53;;
15820;SDS011;8011;51.650;7.240;2022-12-17T18:49:32;63.63;;;28.33;;
15820;SDS011;8011;51.650;7.240;2022-12-17T18:51:58;61.87;;;29.03;;
15820;SDS011;8011;51.650;7.240;2022-12-17T18:54:25;56.50;;;26.13;;
15820;SDS011;8011;51.650;7.240;2022-12-17T18:56:52;66.63;;;29.33;;
15820;SDS011;8011;51.650;7.240;2022-12-17T18:59:20;68.13;;;28.73;;
15820;SDS011;8011;51.650;7.240;2022-12-17T19:01:48;61.60;;;28.93;;
15820;SDS011;8011;51.650;7.240;2022-12-17T19:04:15;82.07;;;32.53;;
15820;SDS011;8011;51.650;7.240;2022-12-17T19:06:46;74.07;;;29.53;;
15820;SDS011;8011;51.650;7.240;2022-12-17T19:11:52;70.10;;;29.60;;
15820;SDS011;8011;51.650;7.240;2022-12-17T19:14:18;88.17;;;32.57;;
15820;SDS011;8011;51.650;7.240;2022-12-17T19:16:46;87.70;;;34.20;;
15820;SDS011;8011;51.650;7.240;2022-12-17T19:19:12;88.27;;;33.10;;
15820;SDS011;8011;51.650;7.240;2022-12-17T19:21:38;85.57;;;32.93;;
15820;SDS011;8011;51.650;7.240;2022-12-17T19:24:05;83.87;;;34.30;;
15820;SDS011;8011;51.650;7.240;2022-12-17T19:26:32;73.57;;;30.30;;
15820;SDS011;8011;51.650;7.240;2022-12-17T19:28:58;79.33;;;31.10;;
15820;SDS011;8011;51.650;7.240;2022-12-17T19:31:26;67.87;;;28.67;;
15820;SDS011;8011;51.650;7.240;2022-12-17T19:33:58;78.00;;;30.67;;
15820;SDS011;8011;51.650;7.240;2022-12-17T19:36:30;71.13;;;31.40;;
15820;SDS011;8011;51.650;7.240;2022-12-17T19:38:58;74.90;;;31.93;;
15820;SDS011;8011;51.650;7.240;2022-12-17T19:41:25;71.30;;;30.30;;
15820;SDS011;8011;51.650;7.240;2022-12-17T19:43:56;66.37;;;29.67;;
15820;SDS011;8011;51.650;7.240;2022-12-17T19:46:23;71.47;;;28.43;;
15820;SDS011;8011;51.650;7.240;2022-12-17T19:48:49;65.57;;;29.73;;
15820;SDS011;8011;51.650;7.240;2022-12-17T19:51:17;76.00;;;32.07;;
15820;SDS011;8011;51.650;7.240;2022-12-17T19:53:44;63.17;;;29.13;;
15820;SDS011;8011;51.650;7.240;2022-12-17T19:56:15;69.13;;;29.20;;
15820;SDS011;8011;51.650;7.240;2022-12-17T19:58:47;68.20;;;29.23;;
15820;SDS011;8011;51.650;7.240;2022-12-17T20:01:25;61.23;;;29.17;;